sensor_id;sensor_type;location;lat;lon;timestamp;pressure;altitude;pressure_sealevel;temperature;humidity
76632;BME280;65526;48.578;-4.520;2023-04-29T00:01:34;101509.38;;;11.44;91.74
76632;BME280;65526;48.578;-4.520;2023-04-29T00:04:01;101247.88;;;9.76;91.97
76632;BME280;65526;48.578;-4.520;2023-04-29T00:06:28;100879.13;;;7.47;91.38
76632;BME280;65526;48.578;-4.520;2023-04-29T00:08:54;101435.44;;;10.76;92.03
76632;BME280;65526;48.578;-4.520;2023-04-29T00:11:20;101642.56;;;12.21;92.07
76632;BME280;65526;48.578;-4.520;2023-04-29T00:13:47;101007.34;;;8.20;91.51
76632;BME280;65526;48.578;-4.520;2023-04-29T00:16:14;101118.84;;;8.98;91.40
76632;BME280;65526;48.578;-4.520;2023-04-29T00:18:40;101004.22;;;7.95;91.26
76632;BME280;65526;48.578;-4.520;2023-04-29T00:21:07;101626.56;;;12.18;92.00
76632;BME280;65526;48.578;-4.520;2023-04-29T00:23:33;101062.53;;;8.51;92.32
76632;BME280;65526;48.578;-4.520;2023-04-29T00:26:00;101248.22;;;9.75;92.25
76632;BME280;65526;48.578;-4.520;2023-04-29T00:28:27;101151.31;;;8.97;91.81
76632;BME280;65526;48.578;-4.520;2023-04-29T00:30:53;101369.59;;;10.59;92.66
76632;BME280;65526;48.578;-4.520;2023-04-29T00:33:21;101005.53;;;7.89;92.00
76632;BME280;65526;48.578;-4.520;2023-04-29T00:35:47;101356.91;;;10.49;93.12
76632;BME280;65526;48.578;-4.520;2023-04-29T00:38:14;100848.88;;;7.33;92.57
76632;BME280;65526;48.578;-4.520;2023-04-29T00:40:40;101229.75;;;9.15;92.82
76632;BME280;65526;48.578;-4.520;2023-04-29T00:43:08;101180.47;;;9.03;92.34
76632;BME280;65526;48.578;-4.520;2023-04-29T00:45:35;101075.59;;;8.42;93.35
76632;BME280;65526;48.578;-4.520;2023-04-29T00:48:01;101664.63;;;11.85;94.09
76632;BME280;65526;48.578;-4.520;2023-04-29T00:50:28;101104.56;;;8.35;93.57
76632;BME280;65526;48.578;-4.520;2023-04-29T00:52:55;101603.19;;;11.81;93.84
76632;BME280;65526;48.578;-4.520;2023-04-29T00:55:22;101200.25;;;8.93;93.99
76632;BME280;65526;48.578;-4.520;2023-04-29T00:57:50;101623.03;;;11.71;94.52
76632;BME280;65526;48.578;-4.520;2023-04-29T01:00:18;101282.91;;;9.34;94.07
76632;BME280;65526;48.578;-4.520;2023-04-29T01:02:45;101202.66;;;9.21;93.50
76632;BME280;65526;48.578;-4.520;2023-04-29T01:05:13;101339.81;;;9.58;93.01
76632;BME280;65526;48.578;-4.520;2023-04-29T01:08:00;101452.88;;;10.85;92.82
76632;BME280;65526;48.578;-4.520;2023-04-29T01:10:33;100776.38;;;6.19;92.21
76632;BME280;65526;48.578;-4.520;2023-04-29T01:13:07;101604.00;;;11.73;93.05
76632;BME280;65526;48.578;-4.520;2023-04-29T01:15:44;101595.78;;;11.85;92.75
76632;BME280;65526;48.578;-4.520;2023-04-29T01:18:40;101592.97;;;11.85;92.51
76632;BME280;65526;48.578;-4.520;2023-04-29T01:21:10;101633.28;;;11.88;92.60
76632;BME280;65526;48.578;-4.520;2023-04-29T01:23:36;101613.50;;;11.43;92.58
76632;BME280;65526;48.578;-4.520;2023-04-29T01:26:03;101368.78;;;10.12;92.33
76632;BME280;65526;48.578;-4.520;2023-04-29T01:32:04;101208.06;;;9.08;92.13
76632;BME280;65526;48.578;-4.520;2023-04-29T01:34:45;101312.28;;;10.08;93.65
76632;BME280;65526;48.578;-4.520;2023-04-29T01:37:31;101096.72;;;8.29;92.56
76632;BME280;65526;48.578;-4.520;2023-04-29T01:40:04;101598.91;;;11.84;92.77
76632;BME280;65526;48.578;-4.520;2023-04-29T01:42:46;101400.00;;;10.17;92.50
76632;BME280;65526;48.578;-4.520;2023-04-29T01:45:18;100894.88;;;7.29;92.18
76632;BME280;65526;48.578;-4.520;2023-04-29T01:47:48;101650.94;;;11.92;92.84
76632;BME280;65526;48.578;-4.520;2023-04-29T01:50:18;100960.28;;;7.51;91.92
76632;BME280;65526;48.578;-4.520;2023-04-29T01:52:46;101656.69;;;11.96;92.24
76632;BME280;65526;48.578;-4.520;2023-04-29T01:55:13;101433.59;;;10.88;92.44
76632;BME280;65526;48.578;-4.520;2023-04-29T01:57:50;101608.28;;;12.00;92.42
76632;BME280;65526;48.578;-4.520;2023-04-29T02:00:55;101090.59;;;8.32;91.68
76632;BME280;65526;48.578;-4.520;2023-04-29T02:03:23;101346.50;;;10.38;91.92
76632;BME280;65526;48.578;-4.520;2023-04-29T02:05:53;101291.81;;;9.57;91.95
76632;BME280;65526;48.578;-4.520;2023-04-29T02:08:19;101627.97;;;12.04;92.11
76632;BME280;65526;48.578;-4.520;2023-04-29T02:10:57;101449.91;;;10.52;91.74
76632;BME280;65526;48.578;-4.520;2023-04-29T02:13:36;101592.47;;;11.63;92.30
76632;BME280;65526;48.578;-4.520;2023-04-29T02:16:11;100910.97;;;7.62;91.44
76632;BME280;65526;48.578;-4.520;2023-04-29T02:18:42;101136.28;;;9.16;91.81
76632;BME280;65526;48.578;-4.520;2023-04-29T02:21:08;101689.25;;;12.04;92.11
76632;BME280;65526;48.578;-4.520;2023-04-29T02:23:35;100721.66;;;6.21;91.49
76632;BME280;65526;48.578;-4.520;2023-04-29T02:26:02;101206.19;;;9.30;92.16
76632;BME280;65526;48.578;-4.520;2023-04-29T02:28:32;101367.31;;;10.06;92.13
76632;BME280;65526;48.578;-4.520;2023-04-29T02:31:00;101045.78;;;8.21;91.88
76632;BME280;65526;48.578;-4.520;2023-04-29T02:33:26;101179.97;;;9.27;92.09
76632;BME280;65526;48.578;-4.520;2023-04-29T02:35:53;101359.94;;;10.27;92.14
76632;BME280;65526;48.578;-4.520;2023-04-29T02:38:19;101433.28;;;10.43;92.19
76632;BME280;65526;48.578;-4.520;2023-04-29T02:40:46;101301.41;;;9.85;92.17
76632;BME280;65526;48.578;-4.520;2023-04-29T02:43:12;101137.25;;;9.11;92.20
76632;BME280;65526;48.578;-4.520;2023-04-29T02:45:39;101081.47;;;8.40;91.63
76632;BME280;65526;48.578;-4.520;2023-04-29T02:48:05;101623.22;;;12.04;92.33
76632;BME280;65526;48.578;-4.520;2023-04-29T02:50:32;101289.44;;;9.93;92.27
76632;BME280;65526;48.578;-4.520;2023-04-29T02:52:59;101628.41;;;12.06;92.29
76632;BME280;65526;48.578;-4.520;2023-04-29T02:55:26;101358.00;;;10.10;92.08
76632;BME280;65526;48.578;-4.520;2023-04-29T02:57:54;101617.28;;;12.06;92.57
76632;BME280;65526;48.578;-4.520;2023-04-29T03:00:21;101347.47;;;10.42;92.04
76632;BME280;65526;48.578;-4.520;2023-04-29T03:02:48;101513.41;;;10.88;92.19
76632;BME280;65526;48.578;-4.520;2023-04-29T03:05:18;101300.50;;;9.47;92.19
76632;BME280;65526;48.578;-4.520;2023-04-29T03:07:44;101522.34;;;11.02;92.13
76632;BME280;65526;48.578;-4.520;2023-04-29T03:10:11;101603.41;;;11.97;92.54
76632;BME280;65526;48.578;-4.520;2023-04-29T03:12:38;101341.56;;;9.97;92.09
76632;BME280;65526;48.578;-4.520;2023-04-29T03:15:06;101638.81;;;11.97;92.48
76632;BME280;65526;48.578;-4.520;2023-04-29T03:17:33;101676.91;;;11.84;92.23
76632;BME280;65526;48.578;-4.520;2023-04-29T03:20:00;101610.69;;;11.89;92.33
76632;BME280;65526;48.578;-4.520;2023-04-29T03:22:27;101367.75;;;10.33;92.39
76632;BME280;65526;48.578;-4.520;2023-04-29T03:24:53;101646.06;;;11.89;92.34
76632;BME280;65526;48.578;-4.520;2023-04-29T03:27:20;101480.13;;;10.70;92.23
76632;BME280;65526;48.578;-4.520;2023-04-29T03:29:47;101671.13;;;11.89;92.61
76632;BME280;65526;48.578;-4.520;2023-04-29T03:32:15;101174.66;;;8.79;92.29
76632;BME280;65526;48.578;-4.520;2023-04-29T03:34:41;100957.81;;;7.41;91.88
76632;BME280;65526;48.578;-4.520;2023-04-29T03:37:46;101038.75;;;7.81;92.13
76632;BME280;65526;48.578;-4.520;2023-04-29T03:40:20;100855.50;;;6.98;91.83
76632;BME280;65526;48.578;-4.520;2023-04-29T03:42:48;101372.38;;;10.29;92.38
76632;BME280;65526;48.578;-4.520;2023-04-29T03:45:14;101237.84;;;9.37;92.13
76632;BME280;65526;48.578;-4.520;2023-04-29T03:47:41;101027.00;;;7.75;92.18
76632;BME280;65526;48.578;-4.520;2023-04-29T03:50:08;101599.81;;;11.59;92.77
76632;BME280;65526;48.578;-4.520;2023-04-29T03:52:34;101278.81;;;9.49;92.48
76632;BME280;65526;48.578;-4.520;2023-04-29T03:55:09;101318.75;;;9.65;92.13
76632;BME280;65526;48.578;-4.520;2023-04-29T03:57:38;101132.72;;;8.98;92.24
76632;BME280;65526;48.578;-4.520;2023-04-29T04:00:05;101391.66;;;10.26;92.48
76632;BME280;65526;48.578;-4.520;2023-04-29T04:02:39;101084.53;;;8.64;92.22
76632;BME280;65526;48.578;-4.520;2023-04-29T04:05:06;101192.41;;;8.95;92.37
76632;BME280;65526;48.578;-4.520;2023-04-29T04:07:32;101629.06;;;11.82;92.58
76632;BME280;65526;48.578;-4.520;2023-04-29T04:10:22;101274.75;;;9.29;92.63
76632;BME280;65526;48.578;-4.520;2023-04-29T04:12:49;101051.28;;;7.87;92.31
76632;BME280;65526;48.578;-4.520;2023-04-29T04:15:15;101137.97;;;8.82;92.38
76632;BME280;65526;48.578;-4.520;2023-04-29T04:17:42;101497.88;;;10.78;92.70
76632;BME280;65526;48.578;-4.520;2023-04-29T04:20:09;101334.91;;;9.63;92.60
76632;BME280;65526;48.578;-4.520;2023-04-29T04:22:36;101036.50;;;8.00;92.37
76632;BME280;65526;48.578;-4.520;2023-04-29T04:25:13;101155.88;;;8.93;92.80
76632;BME280;65526;48.578;-4.520;2023-04-29T04:27:40;101486.00;;;10.69;92.95
76632;BME280;65526;48.578;-4.520;2023-04-29T04:30:10;101378.63;;;10.01;92.88
76632;BME280;65526;48.578;-4.520;2023-04-29T04:32:37;100776.66;;;6.66;92.57
76632;BME280;65526;48.578;-4.520;2023-04-29T04:35:05;101619.47;;;11.62;93.08
76632;BME280;65526;48.578;-4.520;2023-04-29T04:37:32;100959.91;;;7.35;92.23
76632;BME280;65526;48.578;-4.520;2023-04-29T04:40:00;101609.81;;;11.60;93.24
76632;BME280;65526;48.578;-4.520;2023-04-29T04:42:28;101610.50;;;11.57;93.05
76632;BME280;65526;48.578;-4.520;2023-04-29T04:44:57;101624.38;;;11.65;93.20
76632;BME280;65526;48.578;-4.520;2023-04-29T04:47:31;100995.41;;;7.50;92.73
76632;BME280;65526;48.578;-4.520;2023-04-29T04:50:05;101664.66;;;11.68;93.14
76632;BME280;65526;48.578;-4.520;2023-04-29T04:52:32;101140.09;;;8.85;92.57
76632;BME280;65526;48.578;-4.520;2023-04-29T04:55:09;101633.81;;;11.73;93.21
76632;BME280;65526;48.578;-4.520;2023-04-29T04:57:36;101378.91;;;10.25;92.84
76632;BME280;65526;48.578;-4.520;2023-04-29T05:00:03;101652.69;;;11.76;92.87
76632;BME280;65526;48.578;-4.520;2023-04-29T05:02:30;101144.66;;;8.38;92.42
76632;BME280;65526;48.578;-4.520;2023-04-29T05:04:57;101459.66;;;10.66;92.84
76632;BME280;65526;48.578;-4.520;2023-04-29T05:07:26;101430.03;;;10.24;92.95
76632;BME280;65526;48.578;-4.520;2023-04-29T05:09:59;101156.22;;;8.83;92.79
76632;BME280;65526;48.578;-4.520;2023-04-29T05:12:29;100856.81;;;7.00;92.44
76632;BME280;65526;48.578;-4.520;2023-04-29T05:14:57;101220.25;;;9.25;92.67
76632;BME280;65526;48.578;-4.520;2023-04-29T05:17:25;101706.75;;;11.75;93.26
76632;BME280;65526;48.578;-4.520;2023-04-29T05:19:52;101637.94;;;11.75;92.91
76632;BME280;65526;48.578;-4.520;2023-04-29T05:22:18;101246.22;;;9.11;92.93
76632;BME280;65526;48.578;-4.520;2023-04-29T05:24:45;101134.88;;;8.49;92.76
76632;BME280;65526;48.578;-4.520;2023-04-29T05:27:14;101103.59;;;8.14;92.73
76632;BME280;65526;48.578;-4.520;2023-04-29T05:29:41;101411.91;;;10.26;92.65
76632;BME280;65526;48.578;-4.520;2023-04-29T05:32:08;101301.03;;;9.14;92.52
76632;BME280;65526;48.578;-4.520;2023-04-29T05:34:35;101409.97;;;10.18;92.88
76632;BME280;65526;48.578;-4.520;2023-04-29T05:37:01;101370.97;;;9.89;92.66
76632;BME280;65526;48.578;-4.520;2023-04-29T05:39:29;101204.97;;;9.01;92.95
76632;BME280;65526;48.578;-4.520;2023-04-29T05:42:05;101290.72;;;9.49;92.68
76632;BME280;65526;48.578;-4.520;2023-04-29T05:44:45;101229.75;;;8.72;92.47
76632;BME280;65526;48.578;-4.520;2023-04-29T05:47:11;101632.28;;;11.17;92.88
76632;BME280;65526;48.578;-4.520;2023-04-29T05:49:39;101708.19;;;11.72;93.12
76632;BME280;65526;48.578;-4.520;2023-04-29T05:52:05;101417.63;;;10.30;92.75
76632;BME280;65526;48.578;-4.520;2023-04-29T05:54:37;101666.63;;;11.76;92.87
76632;BME280;65526;48.578;-4.520;2023-04-29T05:57:03;101027.84;;;7.84;92.46
76632;BME280;65526;48.578;-4.520;2023-04-29T05:59:30;101683.94;;;11.81;92.86
76632;BME280;65526;48.578;-4.520;2023-04-29T06:01:59;101650.06;;;11.71;92.86
76632;BME280;65526;48.578;-4.520;2023-04-29T06:04:26;101706.09;;;11.78;93.00
76632;BME280;65526;48.578;-4.520;2023-04-29T06:07:05;101704.91;;;11.79;93.10
76632;BME280;65526;48.578;-4.520;2023-04-29T06:09:52;101127.00;;;8.00;93.16
76632;BME280;65526;48.578;-4.520;2023-04-29T06:12:19;101220.94;;;8.79;93.42
76632;BME280;65526;48.578;-4.520;2023-04-29T06:14:46;101677.75;;;11.76;93.27
76632;BME280;65526;48.578;-4.520;2023-04-29T06:17:13;101311.94;;;9.28;92.76
76632;BME280;65526;48.578;-4.520;2023-04-29T06:19:40;101433.94;;;10.31;94.52
76632;BME280;65526;48.578;-4.520;2023-04-29T06:22:09;101398.91;;;9.75;93.59
76632;BME280;65526;48.578;-4.520;2023-04-29T06:24:36;101662.50;;;11.73;93.36
76632;BME280;65526;48.578;-4.520;2023-04-29T06:27:04;101253.06;;;8.80;92.71
76632;BME280;65526;48.578;-4.520;2023-04-29T06:29:31;101713.75;;;11.72;93.19
76632;BME280;65526;48.578;-4.520;2023-04-29T06:31:57;100925.53;;;7.02;92.29
76632;BME280;65526;48.578;-4.520;2023-04-29T06:34:23;101319.75;;;9.18;92.65
76632;BME280;65526;48.578;-4.520;2023-04-29T06:37:25;100919.41;;;7.22;92.45
76632;BME280;65526;48.578;-4.520;2023-04-29T06:40:32;101178.72;;;8.56;92.86
76632;BME280;65526;48.578;-4.520;2023-04-29T06:43:06;101711.25;;;11.97;93.32
76632;BME280;65526;48.578;-4.520;2023-04-29T06:45:51;101674.50;;;12.03;92.77
76632;BME280;65526;48.578;-4.520;2023-04-29T06:48:28;101383.53;;;9.86;92.75
76632;BME280;65526;48.578;-4.520;2023-04-29T06:50:56;101677.25;;;12.12;92.69
76632;BME280;65526;48.578;-4.520;2023-04-29T06:53:23;101224.69;;;9.08;92.32
76632;BME280;65526;48.578;-4.520;2023-04-29T06:55:50;101334.75;;;9.68;92.53
76632;BME280;65526;48.578;-4.520;2023-04-29T06:58:17;101058.31;;;8.36;92.28
76632;BME280;65526;48.578;-4.520;2023-04-29T07:00:48;101582.22;;;11.08;92.52
76632;BME280;65526;48.578;-4.520;2023-04-29T07:03:16;101558.50;;;11.10;92.63
76632;BME280;65526;48.578;-4.520;2023-04-29T07:05:44;101557.59;;;11.27;92.59
76632;BME280;65526;48.578;-4.520;2023-04-29T07:08:11;101372.53;;;10.24;92.29
76632;BME280;65526;48.578;-4.520;2023-04-29T07:10:38;101165.84;;;8.60;91.96
76632;BME280;65526;48.578;-4.520;2023-04-29T07:13:04;101734.34;;;12.26;92.35
76632;BME280;65526;48.578;-4.520;2023-04-29T07:15:33;101227.56;;;9.38;91.92
76632;BME280;65526;48.578;-4.520;2023-04-29T07:18:02;101742.06;;;12.29;92.33
76632;BME280;65526;48.578;-4.520;2023-04-29T07:20:29;101391.06;;;9.86;92.40
76632;BME280;65526;48.578;-4.520;2023-04-29T07:22:55;101185.91;;;8.74;91.92
76632;BME280;65526;48.578;-4.520;2023-04-29T07:25:22;101578.22;;;11.26;92.14
76632;BME280;65526;48.578;-4.520;2023-04-29T07:27:48;101714.94;;;12.39;92.26
76632;BME280;65526;48.578;-4.520;2023-04-29T07:30:14;101492.91;;;10.54;92.40
76632;BME280;65526;48.578;-4.520;2023-04-29T07:32:41;101775.59;;;12.42;92.71
76632;BME280;65526;48.578;-4.520;2023-04-29T07:35:07;101421.22;;;10.13;92.85
76632;BME280;65526;48.578;-4.520;2023-04-29T07:37:35;101665.28;;;11.73;92.68
76632;BME280;65526;48.578;-4.520;2023-04-29T07:40:03;101746.97;;;12.53;92.29
76632;BME280;65526;48.578;-4.520;2023-04-29T07:42:30;101288.41;;;9.60;92.02
76632;BME280;65526;48.578;-4.520;2023-04-29T07:44:58;101302.31;;;10.07;91.89
76632;BME280;65526;48.578;-4.520;2023-04-29T07:47:24;101075.91;;;8.31;91.58
76632;BME280;65526;48.578;-4.520;2023-04-29T07:49:51;101263.34;;;9.86;92.18
76632;BME280;65526;48.578;-4.520;2023-04-29T07:52:17;101238.97;;;9.53;92.04
76632;BME280;65526;48.578;-4.520;2023-04-29T07:54:44;101497.34;;;11.31;91.89
76632;BME280;65526;48.578;-4.520;2023-04-29T07:57:10;101204.97;;;9.01;92.21
76632;BME280;65526;48.578;-4.520;2023-04-29T07:59:36;101506.78;;;11.39;91.90
76632;BME280;65526;48.578;-4.520;2023-04-29T08:02:03;101484.00;;;11.16;92.16
76632;BME280;65526;48.578;-4.520;2023-04-29T08:04:29;101460.72;;;11.21;92.18
76632;BME280;65526;48.578;-4.520;2023-04-29T08:07:03;101134.34;;;8.99;91.24
76632;BME280;65526;48.578;-4.520;2023-04-29T08:09:30;101525.00;;;11.28;91.83
76632;BME280;65526;48.578;-4.520;2023-04-29T08:11:56;101420.63;;;10.63;91.56
76632;BME280;65526;48.578;-4.520;2023-04-29T08:14:22;101394.78;;;10.62;91.37
76632;BME280;65526;48.578;-4.520;2023-04-29T08:16:48;101376.25;;;10.75;91.34
76632;BME280;65526;48.578;-4.520;2023-04-29T08:19:15;101608.19;;;12.17;91.12
76632;BME280;65526;48.578;-4.520;2023-04-29T08:21:41;101039.31;;;8.90;90.82
76632;BME280;65526;48.578;-4.520;2023-04-29T08:24:08;101324.78;;;10.31;90.56
76632;BME280;65526;48.578;-4.520;2023-04-29T08:26:34;101204.84;;;9.53;90.28
76632;BME280;65526;48.578;-4.520;2023-04-29T08:29:01;101716.72;;;13.05;91.42
76632;BME280;65526;48.578;-4.520;2023-04-29T08:31:27;101647.06;;;12.35;91.25
76632;BME280;65526;48.578;-4.520;2023-04-29T08:33:53;101427.56;;;10.78;90.84
76632;BME280;65526;48.578;-4.520;2023-04-29T08:36:20;101267.53;;;10.01;91.33
76632;BME280;65526;48.578;-4.520;2023-04-29T08:38:46;101764.00;;;13.23;91.50
76632;BME280;65526;48.578;-4.520;2023-04-29T08:41:13;101180.72;;;9.45;90.94
76632;BME280;65526;48.578;-4.520;2023-04-29T08:43:41;101751.41;;;13.37;91.25
76632;BME280;65526;48.578;-4.520;2023-04-29T08:46:08;101041.03;;;9.11;90.43
76632;BME280;65526;48.578;-4.520;2023-04-29T08:48:36;101740.38;;;13.20;91.09
76632;BME280;65526;48.578;-4.520;2023-04-29T08:51:02;101508.16;;;11.83;90.83
76632;BME280;65526;48.578;-4.520;2023-04-29T08:53:29;101734.59;;;13.70;90.67
76632;BME280;65526;48.578;-4.520;2023-04-29T08:55:57;101073.09;;;9.59;90.05
76632;BME280;65526;48.578;-4.520;2023-04-29T08:58:28;101764.41;;;13.66;90.74
76632;BME280;65526;48.578;-4.520;2023-04-29T09:00:55;101607.19;;;12.76;90.64
76632;BME280;65526;48.578;-4.520;2023-04-29T09:03:26;101745.56;;;13.87;90.82
76632;BME280;65526;48.578;-4.520;2023-04-29T09:05:59;101616.31;;;12.97;90.28
76632;BME280;65526;48.578;-4.520;2023-04-29T09:08:26;101315.38;;;11.44;89.88
76632;BME280;65526;48.578;-4.520;2023-04-29T09:10:53;101668.22;;;13.67;89.37
76632;BME280;65526;48.578;-4.520;2023-04-29T09:13:30;101789.75;;;14.18;89.32
76632;BME280;65526;48.578;-4.520;2023-04-29T09:15:57;101340.81;;;11.34;89.00
76632;BME280;65526;48.578;-4.520;2023-04-29T09:18:45;101738.94;;;14.16;89.41
76632;BME280;65526;48.578;-4.520;2023-04-29T09:23:38;101205.28;;;10.60;89.50
76632;BME280;65526;48.578;-4.520;2023-04-29T09:26:04;101210.19;;;10.63;89.85
76632;BME280;65526;48.578;-4.520;2023-04-29T09:28:31;101293.00;;;11.53;91.16
76632;BME280;65526;48.578;-4.520;2023-04-29T09:30:57;101200.66;;;10.85;91.38
76632;BME280;65526;48.578;-4.520;2023-04-29T09:33:23;101738.72;;;14.34;90.82
76632;BME280;65526;48.578;-4.520;2023-04-29T09:35:53;101439.44;;;12.08;90.84
76632;BME280;65526;48.578;-4.520;2023-04-29T09:38:23;101160.59;;;10.45;91.11
76632;BME280;65526;48.578;-4.520;2023-04-29T09:40:49;101167.28;;;10.85;91.34
76632;BME280;65526;48.578;-4.520;2023-04-29T09:43:18;101802.94;;;14.42;91.51
76632;BME280;65526;48.578;-4.520;2023-04-29T09:45:46;101781.03;;;14.44;91.49
76632;BME280;65526;48.578;-4.520;2023-04-29T09:48:13;101315.75;;;11.88;91.83
76632;BME280;65526;48.578;-4.520;2023-04-29T09:50:42;101760.25;;;14.70;91.02
76632;BME280;65526;48.578;-4.520;2023-04-29T09:53:10;101343.03;;;11.95;89.91
76632;BME280;65526;48.578;-4.520;2023-04-29T09:55:57;101126.38;;;10.73;89.91
76632;BME280;65526;48.578;-4.520;2023-04-29T09:58:31;101081.81;;;10.49;89.98
76632;BME280;65526;48.578;-4.520;2023-04-29T10:01:04;101534.41;;;13.14;90.36
76632;BME280;65526;48.578;-4.520;2023-04-29T10:03:32;101251.41;;;11.03;90.32
76632;BME280;65526;48.578;-4.520;2023-04-29T10:06:00;101762.47;;;14.64;91.17
76632;BME280;65526;48.578;-4.520;2023-04-29T10:08:32;101087.88;;;10.63;90.37
76632;BME280;65526;48.578;-4.520;2023-04-29T10:11:01;101757.56;;;14.73;90.92
76632;BME280;65526;48.578;-4.520;2023-04-29T10:13:30;101469.50;;;13.17;91.05
76632;BME280;65526;48.578;-4.520;2023-04-29T10:16:12;101584.41;;;14.04;90.49
76632;BME280;65526;48.578;-4.520;2023-04-29T10:18:43;101800.16;;;15.06;89.47
76632;BME280;65526;48.578;-4.520;2023-04-29T10:21:13;101193.16;;;11.19;91.09
76632;BME280;65526;48.578;-4.520;2023-04-29T10:23:42;101259.28;;;11.67;90.55
76632;BME280;65526;48.578;-4.520;2023-04-29T10:26:11;101031.59;;;10.66;89.79
76632;BME280;65526;48.578;-4.520;2023-04-29T10:28:39;101334.09;;;12.58;90.09
76632;BME280;65526;48.578;-4.520;2023-04-29T10:31:06;101332.44;;;12.33;90.31
76632;BME280;65526;48.578;-4.520;2023-04-29T10:33:34;101746.09;;;15.18;90.18
76632;BME280;65526;48.578;-4.520;2023-04-29T10:36:01;101791.16;;;15.13;90.65
76632;BME280;65526;48.578;-4.520;2023-04-29T10:38:42;101218.19;;;11.51;90.46
76632;BME280;65526;48.578;-4.520;2023-04-29T10:41:36;101743.81;;;15.08;90.62
76632;BME280;65526;48.578;-4.520;2023-04-29T10:44:07;101271.75;;;11.81;91.17
76632;BME280;65526;48.578;-4.520;2023-04-29T10:46:33;101504.59;;;13.54;91.02
76632;BME280;65526;48.578;-4.520;2023-04-29T10:49:02;101327.41;;;12.02;90.81
76632;BME280;65526;48.578;-4.520;2023-04-29T10:51:42;101526.47;;;13.76;90.76
76632;BME280;65526;48.578;-4.520;2023-04-29T10:54:13;101789.66;;;15.03;90.58
76632;BME280;65526;48.578;-4.520;2023-04-29T10:56:41;101295.91;;;11.77;91.62
76632;BME280;65526;48.578;-4.520;2023-04-29T10:59:12;101766.00;;;15.01;91.51
76632;BME280;65526;48.578;-4.520;2023-04-29T11:01:44;101193.66;;;11.33;91.73
76632;BME280;65526;48.578;-4.520;2023-04-29T11:04:11;101308.97;;;12.46;90.63
76632;BME280;65526;48.578;-4.520;2023-04-29T11:06:52;101503.88;;;13.69;89.43
76632;BME280;65526;48.578;-4.520;2023-04-29T11:09:29;101548.06;;;14.04;89.69
76632;BME280;65526;48.578;-4.520;2023-04-29T11:12:02;101741.72;;;15.33;89.73
76632;BME280;65526;48.578;-4.520;2023-04-29T11:14:33;101758.00;;;15.43;90.14
76632;BME280;65526;48.578;-4.520;2023-04-29T11:17:04;101265.88;;;12.19;89.89
76632;BME280;65526;48.578;-4.520;2023-04-29T11:19:42;101776.03;;;15.30;89.93
76632;BME280;65526;48.578;-4.520;2023-04-29T11:27:29;101507.41;;;13.66;89.68
76632;BME280;65526;48.578;-4.520;2023-04-29T11:29:57;101783.13;;;15.12;89.98
76632;BME280;65526;48.578;-4.520;2023-04-29T11:32:29;101433.09;;;12.89;89.62
76632;BME280;65526;48.578;-4.520;2023-04-29T11:35:16;101465.06;;;13.52;88.69
76632;BME280;65526;48.578;-4.520;2023-04-29T11:37:44;101363.00;;;12.42;89.30
76632;BME280;65526;48.578;-4.520;2023-04-29T11:40:12;101494.63;;;13.41;90.68
76632;BME280;65526;48.578;-4.520;2023-04-29T11:42:49;101016.69;;;10.83;89.47
76632;BME280;65526;48.578;-4.520;2023-04-29T11:45:19;101310.16;;;12.57;89.42
76632;BME280;65526;48.578;-4.520;2023-04-29T11:47:47;101714.00;;;15.00;89.98
76632;BME280;65526;48.578;-4.520;2023-04-29T11:50:15;101296.66;;;12.23;89.26
76632;BME280;65526;48.578;-4.520;2023-04-29T11:52:46;101533.94;;;14.12;89.36
76632;BME280;65526;48.578;-4.520;2023-04-29T11:55:12;101747.19;;;15.41;90.30
76632;BME280;65526;48.578;-4.520;2023-04-29T11:57:39;101125.41;;;11.72;89.03
76632;BME280;65526;48.578;-4.520;2023-04-29T12:00:12;101307.44;;;12.73;88.35
76632;BME280;65526;48.578;-4.520;2023-04-29T12:02:43;101755.63;;;15.29;89.75
76632;BME280;65526;48.578;-4.520;2023-04-29T12:05:10;101757.44;;;15.22;88.51
76632;BME280;65526;48.578;-4.520;2023-04-29T12:07:38;101749.16;;;15.13;89.04
76632;BME280;65526;48.578;-4.520;2023-04-29T12:10:08;101480.44;;;13.34;88.59
76632;BME280;65526;48.578;-4.520;2023-04-29T12:12:38;101730.03;;;15.15;89.97
76632;BME280;65526;48.578;-4.520;2023-04-29T12:15:07;101337.91;;;12.78;90.28
76632;BME280;65526;48.578;-4.520;2023-04-29T12:17:35;101763.94;;;15.26;89.21
76632;BME280;65526;48.578;-4.520;2023-04-29T12:20:01;101013.03;;;10.58;88.60
76632;BME280;65526;48.578;-4.520;2023-04-29T12:22:31;101220.81;;;11.93;87.88
76632;BME280;65526;48.578;-4.520;2023-04-29T12:24:58;101380.41;;;13.12;88.78
76632;BME280;65526;48.578;-4.520;2023-04-29T12:27:26;101756.47;;;15.45;89.57
76632;BME280;65526;48.578;-4.520;2023-04-29T12:29:52;101555.03;;;14.10;88.50
76632;BME280;65526;48.578;-4.520;2023-04-29T12:32:21;101757.66;;;15.44;89.01
76632;BME280;65526;48.578;-4.520;2023-04-29T12:34:49;101181.00;;;11.80;87.86
76632;BME280;65526;48.578;-4.520;2023-04-29T12:37:17;101487.47;;;14.08;88.27
76632;BME280;65526;48.578;-4.520;2023-04-29T12:39:44;101707.97;;;15.41;87.60
76632;BME280;65526;48.578;-4.520;2023-04-29T12:42:14;101460.03;;;13.58;88.68
76632;BME280;65526;48.578;-4.520;2023-04-29T12:44:47;101337.78;;;12.75;88.08
76632;BME280;65526;48.578;-4.520;2023-04-29T12:47:14;101456.34;;;13.94;88.12
76632;BME280;65526;48.578;-4.520;2023-04-29T12:49:44;101301.91;;;12.49;87.81
76632;BME280;65526;48.578;-4.520;2023-04-29T12:52:11;101746.56;;;15.48;88.76
76632;BME280;65526;48.578;-4.520;2023-04-29T12:54:38;101318.16;;;12.71;87.22
76632;BME280;65526;48.578;-4.520;2023-04-29T12:57:09;101753.91;;;15.53;88.16
76632;BME280;65526;48.578;-4.520;2023-04-29T12:59:36;101720.59;;;15.51;87.02
76632;BME280;65526;48.578;-4.520;2023-04-29T13:02:03;101074.84;;;11.70;87.66
76632;BME280;65526;48.578;-4.520;2023-04-29T13:04:29;101738.19;;;15.64;87.92
76632;BME280;65526;48.578;-4.520;2023-04-29T13:06:55;101237.56;;;12.29;87.88